Time;durP1;ratioP1;P1;durP2;ratioP2;P2;SDS_P1;SDS_P2;PMS_P1;PMS_P2;Temp;Humidity;BMP_temperature;BMP_pressure;BME280_temperature;BME280_humidity;BME280_pressure;Samples;Min_cycle;Max_cycle;Signal;HPM_P1;HPM_P2
2023/06/24 00:00:51;;;;;;;;;;;;;;;19.66;77.68;99728.06;4465143;32;34580;-79
2023/06/24 00:03:22;;;;;;;;;;;;;;;19.59;78.16;99727.50;4476005;32;34351;-79
2023/06/24 00:05:51;;;;;;;;;;;;;;;19.62;77.74;99716.00;4475062;32;33368;-78
2023/06/24 00:08:19;;;;;;;;;;;;;;;19.65;77.79;99715.00;4469451;32;33754;-78
2023/06/24 00:10:49;;;;;;;;;;;;;;;19.69;77.89;99724.47;4475995;32;35194;-78
2023/06/24 00:13:17;;;;;;;;;;;;;;;19.74;77.81;99714.53;4464219;32;34399;-78
2023/06/24 00:15:46;;;;;;;;;;;;;;;19.48;79.58;99719.31;4474140;32;32837;-79
2023/06/24 00:18:15;;;;;;;;;;;;;;;19.55;79.12;99704.94;4482587;32;33594;-78
2023/06/24 00:20:45;;;;;;;;;;;;;;;19.78;79.07;99713.47;4476432;32;35628;-78
2023/06/24 00:23:14;;;;;;;;;;;;;;;19.71;78.85;99712.94;4476531;32;34443;-79
2023/06/24 00:25:43;;;;;;;;;;;;;;;19.73;78.21;99704.97;4476862;32;33961;-78
2023/06/24 00:28:12;;;;;;;;;;;;;;;19.75;77.84;99706.59;4482103;31;33542;-78
2023/06/24 00:30:42;;;;;;;;;;;;;;;19.72;77.73;99724.31;4476653;32;34766;-80
2023/06/24 00:33:13;;;;;;;;;;;;;;;19.79;77.40;99712.56;4476518;32;34962;-78
2023/06/24 00:35:42;;;;;;;;;;;;;;;19.72;77.83;99712.00;4476579;32;32978;-78
2023/06/24 00:38:12;;;;;;;;;;;;;;;19.69;77.58;99704.28;4473750;32;34014;-79
2023/06/24 00:40:41;;;;;;;;;;;;;;;19.70;77.94;99699.88;4466496;32;33423;-80
2023/06/24 00:43:09;;;;;;;;;;;;;;;19.88;76.89;99701.53;4461056;32;35021;-78
2023/06/24 00:45:38;;;;;;;;;;;;;;;19.94;77.01;99698.59;4465463;32;33583;-80
2023/06/24 00:48:07;;;;;;;;;;;;;;;19.95;76.51;99696.81;4476282;32;33648;-79
2023/06/24 00:50:36;;;;;;;;;;;;;;;19.68;77.17;99699.09;4482261;32;34212;-80
2023/06/24 00:53:08;;;;;;;;;;;;;;;19.88;76.92;99688.37;4476267;32;34434;-77
2023/06/24 00:55:38;;;;;;;;;;;;;;;19.74;76.49;99685.59;4476142;32;32529;-77
2023/06/24 00:58:06;;;;;;;;;;;;;;;19.85;76.53;99687.69;4476308;32;34217;-78
2023/06/24 01:00:35;;;;;;;;;;;;;;;19.73;76.95;99690.00;4476882;32;34741;-79
2023/06/24 01:03:04;;;;;;;;;;;;;;;19.78;76.20;99692.41;4482092;32;34695;-79
2023/06/24 01:05:35;;;;;;;;;;;;;;;19.71;76.57;99691.03;4478062;32;33468;-77
2023/06/24 01:08:04;;;;;;;;;;;;;;;19.67;75.85;99687.69;4469908;32;33139;-80
2023/06/24 01:10:33;;;;;;;;;;;;;;;19.55;76.46;99678.63;4470746;32;34654;-77
2023/06/24 01:13:03;;;;;;;;;;;;;;;19.53;76.66;99677.84;4478708;32;34525;-79
2023/06/24 01:15:33;;;;;;;;;;;;;;;19.76;74.73;99673.22;4460628;31;32560;-79
2023/06/24 01:18:03;;;;;;;;;;;;;;;19.85;75.03;99678.00;4471201;32;34565;-80
2023/06/24 01:20:35;;;;;;;;;;;;;;;19.60;75.66;99673.97;4465018;31;34331;-78
2023/06/24 01:23:12;;;;;;;;;;;;;;;19.81;75.16;99674.69;4464789;32;35162;-78
2023/06/24 01:25:45;;;;;;;;;;;;;;;19.84;74.80;99665.78;4480058;32;33646;-78
2023/06/24 01:28:24;;;;;;;;;;;;;;;19.66;74.28;99664.91;4466106;31;33719;-78
2023/06/24 01:30:57;;;;;;;;;;;;;;;19.80;74.22;99672.13;4478054;32;34214;-77
2023/06/24 01:33:30;;;;;;;;;;;;;;;19.59;73.61;99659.09;4464852;32;34310;-79
2023/06/24 01:35:59;;;;;;;;;;;;;;;19.50;74.10;99666.59;4462718;32;34195;-78
2023/06/24 01:38:28;;;;;;;;;;;;;;;19.64;73.77;99658.84;4467983;32;33674;-79
2023/06/24 01:40:57;;;;;;;;;;;;;;;19.67;73.03;99652.59;4462166;32;35535;-79
2023/06/24 01:43:26;;;;;;;;;;;;;;;19.75;73.49;99648.69;4467542;32;34996;-78
2023/06/24 01:45:55;;;;;;;;;;;;;;;19.70;73.11;99642.81;4470727;32;33988;-78
2023/06/24 01:48:26;;;;;;;;;;;;;;;19.50;72.55;99649.06;4467121;32;33643;-79
2023/06/24 01:51:00;;;;;;;;;;;;;;;19.28;74.26;99643.16;4464247;32;33998;-78
2023/06/24 01:53:29;;;;;;;;;;;;;;;19.37;73.79;99648.81;4472688;32;34810;-79
2023/06/24 01:55:58;;;;;;;;;;;;;;;19.40;74.34;99647.78;4463122;32;33480;-78
2023/06/24 01:58:27;;;;;;;;;;;;;;;19.41;74.03;99636.38;4469761;32;33523;-80
2023/06/24 02:00:56;;;;;;;;;;;;;;;19.50;72.46;99645.56;4468986;32;33975;-78
2023/06/24 02:03:24;;;;;;;;;;;;;;;19.53;71.87;99625.22;4466619;32;34315;-79
2023/06/24 02:05:53;;;;;;;;;;;;;;;19.30;73.36;99622.88;4462477;32;33424;-80
2023/06/24 02:08:24;;;;;;;;;;;;;;;19.53;72.56;99617.31;4462497;32;34908;-79
2023/06/24 02:10:53;;;;;;;;;;;;;;;19.59;71.55;99618.78;4478259;32;34012;-77
2023/06/24 02:13:21;;;;;;;;;;;;;;;19.34;72.70;99624.44;4471330;32;34754;-78
2023/06/24 02:15:50;;;;;;;;;;;;;;;19.47;71.97;99633.41;4463529;32;33294;-79
2023/06/24 02:18:19;;;;;;;;;;;;;;;19.38;72.55;99644.41;4469470;32;33530;-79
2023/06/24 02:20:49;;;;;;;;;;;;;;;19.31;72.51;99654.38;4471539;32;34328;-78
2023/06/24 02:23:19;;;;;;;;;;;;;;;19.30;72.70;99641.31;4472075;32;34127;-80
2023/06/24 02:25:50;;;;;;;;;;;;;;;19.36;72.12;99641.84;4467625;32;33094;-79
2023/06/24 02:28:18;;;;;;;;;;;;;;;19.28;72.84;99640.53;4460897;32;33252;-79
2023/06/24 02:30:47;;;;;;;;;;;;;;;19.60;71.37;99638.91;4459800;32;34310;-78
2023/06/24 02:33:18;;;;;;;;;;;;;;;19.61;71.45;99646.72;4465376;32;34108;-79
2023/06/24 02:35:47;;;;;;;;;;;;;;;19.76;70.75;99652.16;4459119;32;33282;-77
2023/06/24 02:38:16;;;;;;;;;;;;;;;19.47;71.82;99661.50;4458162;32;33702;-77
2023/06/24 02:40:46;;;;;;;;;;;;;;;19.60;71.48;99652.91;4455337;32;34280;-79
2023/06/24 02:43:17;;;;;;;;;;;;;;;19.64;71.34;99658.00;4461947;32;34104;-78
2023/06/24 02:45:46;;;;;;;;;;;;;;;19.57;71.45;99663.59;4457127;32;33826;-79
2023/06/24 02:48:15;;;;;;;;;;;;;;;19.44;72.42;99659.88;4459199;32;33397;-79
2023/06/24 02:50:44;;;;;;;;;;;;;;;19.53;72.51;99658.56;4446131;32;32842;-77
2023/06/24 02:53:13;;;;;;;;;;;;;;;19.61;72.40;99667.75;4454577;32;35008;-78
2023/06/24 02:55:42;;;;;;;;;;;;;;;19.43;72.44;99660.81;4462789;32;33345;-77
2023/06/24 02:58:11;;;;;;;;;;;;;;;19.45;72.49;99674.75;4457565;32;33371;-77
2023/06/24 03:00:42;;;;;;;;;;;;;;;19.28;73.06;99677.34;4459492;32;34505;-77
2023/06/24 03:03:15;;;;;;;;;;;;;;;19.42;72.40;99682.78;4458724;32;34604;-79
2023/06/24 03:05:48;;;;;;;;;;;;;;;19.40;72.18;99689.88;4466276;32;34251;-80
2023/06/24 03:08:17;;;;;;;;;;;;;;;19.57;72.05;99691.69;4458804;32;33672;-79
2023/06/24 03:10:46;;;;;;;;;;;;;;;19.58;71.66;99686.34;4458502;32;34035;-78
2023/06/24 03:13:15;;;;;;;;;;;;;;;19.62;71.05;99687.06;4460338;32;34386;-78
2023/06/24 03:15:45;;;;;;;;;;;;;;;19.54;71.25;99686.56;4459284;32;33572;-79
2023/06/24 03:18:14;;;;;;;;;;;;;;;19.28;72.71;99680.84;4467071;32;33825;-78
2023/06/24 03:20:43;;;;;;;;;;;;;;;19.27;71.82;99676.50;4461703;32;34347;-77
2023/06/24 03:23:12;;;;;;;;;;;;;;;18.95;72.86;99678.06;4461442;32;34045;-79
2023/06/24 03:25:41;;;;;;;;;;;;;;;19.19;72.11;99679.50;4461747;32;33221;-78
2023/06/24 03:28:09;;;;;;;;;;;;;;;19.05;72.25;99689.00;4480568;32;33910;-78
2023/06/24 03:30:39;;;;;;;;;;;;;;;18.94;72.68;99686.88;4477333;32;33990;-78
2023/06/24 03:33:09;;;;;;;;;;;;;;;19.21;71.89;99687.34;4477398;32;34234;-79
2023/06/24 03:35:38;;;;;;;;;;;;;;;19.39;71.09;99681.16;4464026;32;33238;-79
2023/06/24 03:38:07;;;;;;;;;;;;;;;19.36;70.67;99693.63;4461575;32;33660;-78
2023/06/24 03:40:36;;;;;;;;;;;;;;;19.54;70.11;99690.06;4467387;32;34019;-77
2023/06/24 03:43:05;;;;;;;;;;;;;;;19.33;70.30;99693.75;4461258;32;34468;-78
2023/06/24 03:45:34;;;;;;;;;;;;;;;19.31;70.95;99696.47;4473825;32;33687;-78
2023/06/24 03:48:04;;;;;;;;;;;;;;;19.43;70.16;99704.69;4460953;32;34256;-79
2023/06/24 03:50:34;;;;;;;;;;;;;;;19.50;70.16;99722.72;4476619;32;34709;-78
2023/06/24 03:53:03;;;;;;;;;;;;;;;19.29;69.87;99711.47;4463732;32;33682;-78
2023/06/24 03:55:32;;;;;;;;;;;;;;;19.08;70.16;99718.63;4465490;32;34386;-77
2023/06/24 03:58:01;;;;;;;;;;;;;;;19.43;69.80;99731.84;4461725;32;34927;-79
2023/06/24 04:00:30;;;;;;;;;;;;;;;19.64;68.75;99739.59;4469847;32;34362;-79
2023/06/24 04:03:01;;;;;;;;;;;;;;;19.58;68.42;99740.75;4475517;32;35895;-77
2023/06/24 04:05:33;;;;;;;;;;;;;;;19.73;68.52;99741.81;4465039;32;34016;-78
2023/06/24 04:08:06;;;;;;;;;;;;;;;19.86;66.82;99745.53;4459763;32;33823;-78
2023/06/24 04:10:36;;;;;;;;;;;;;;;20.08;66.19;99754.94;4469341;32;33948;-79
2023/06/24 04:13:05;;;;;;;;;;;;;;;20.09;65.78;99747.00;4468918;32;33908;-77
2023/06/24 04:15:34;;;;;;;;;;;;;;;20.37;64.79;99756.94;4470446;32;31541;-79
2023/06/24 04:18:03;;;;;;;;;;;;;;;20.25;64.22;99757.59;4461118;32;34852;-78
2023/06/24 04:20:32;;;;;;;;;;;;;;;20.68;63.82;99757.97;4472121;32;34201;-78
2023/06/24 04:23:09;;;;;;;;;;;;;;;20.94;62.22;99745.16;4469875;32;34828;-78
2023/06/24 04:25:38;;;;;;;;;;;;;;;21.19;61.33;99747.28;4473499;32;32953;-78
2023/06/24 04:28:06;;;;;;;;;;;;;;;21.13;60.21;99751.13;4461257;32;34809;-78
2023/06/24 04:30:35;;;;;;;;;;;;;;;21.14;60.45;99754.59;4462424;32;33973;-79
2023/06/24 04:33:04;;;;;;;;;;;;;;;21.47;59.58;99757.16;4476599;32;34147;-76
2023/06/24 04:35:33;;;;;;;;;;;;;;;21.65;58.90;99749.94;4482170;32;33048;-77
2023/06/24 04:38:02;;;;;;;;;;;;;;;22.08;57.23;99758.00;4471034;32;33773;-77
2023/06/24 04:40:32;;;;;;;;;;;;;;;22.26;56.86;99764.84;4470286;32;33646;-79
2023/06/24 04:43:01;;;;;;;;;;;;;;;22.80;54.92;99764.19;4461878;32;33454;-79
2023/06/24 04:45:30;;;;;;;;;;;;;;;22.68;55.53;99759.69;4466168;32;33208;-78
2023/06/24 04:47:59;;;;;;;;;;;;;;;22.74;54.52;99749.56;4459652;32;33871;-78
2023/06/24 04:50:27;;;;;;;;;;;;;;;21.94;56.37;99749.13;4460766;32;34186;-77
2023/06/24 04:52:56;;;;;;;;;;;;;;;21.99;56.55;99746.19;4468897;32;33995;-78
2023/06/24 04:55:25;;;;;;;;;;;;;;;22.10;56.59;99749.03;4460003;32;32693;-78
2023/06/24 04:57:55;;;;;;;;;;;;;;;22.27;56.00;99749.84;4466244;32;33957;-77
2023/06/24 05:00:24;;;;;;;;;;;;;;;22.40;56.25;99761.38;4460540;32;34000;-78
2023/06/24 05:02:53;;;;;;;;;;;;;;;21.90;57.71;99752.88;4473036;32;34611;-78
2023/06/24 05:05:22;;;;;;;;;;;;;;;22.72;54.97;99763.84;4463280;32;33209;-78
2023/06/24 05:07:51;;;;;;;;;;;;;;;22.58;54.69;99765.53;4467459;32;33912;-77
2023/06/24 05:10:20;;;;;;;;;;;;;;;22.65;55.08;99757.22;4464853;32;34393;-78
2023/06/24 05:12:48;;;;;;;;;;;;;;;22.67;54.74;99763.28;4466934;32;34068;-78
2023/06/24 05:15:18;;;;;;;;;;;;;;;22.80;54.44;99758.91;4463159;32;33806;-77
2023/06/24 05:17:47;;;;;;;;;;;;;;;23.04;53.84;99758.34;4469488;32;33765;-77
2023/06/24 05:20:19;;;;;;;;;;;;;;;23.08;54.06;99765.16;4466004;32;33868;-79
2023/06/24 05:22:48;;;;;;;;;;;;;;;22.30;55.75;99762.88;4460760;32;34865;-78
2023/06/24 05:25:17;;;;;;;;;;;;;;;22.32;56.44;99764.47;4466446;32;33619;-77
2023/06/24 05:27:46;;;;;;;;;;;;;;;22.13;56.82;99758.56;4461083;32;34267;-78
2023/06/24 05:30:15;;;;;;;;;;;;;;;22.24;56.20;99752.69;4465054;32;34823;-78
2023/06/24 05:32:46;;;;;;;;;;;;;;;22.19;56.16;99760.84;4459399;32;34353;-77
2023/06/24 05:35:14;;;;;;;;;;;;;;;22.29;56.47;99755.91;4460007;32;33184;-77
2023/06/24 05:37:46;;;;;;;;;;;;;;;22.08;56.73;99761.47;4459236;32;34441;-78
2023/06/24 05:40:15;;;;;;;;;;;;;;;22.14;56.65;99755.00;4468713;32;33724;-79
2023/06/24 05:42:44;;;;;;;;;;;;;;;22.16;56.35;99768.97;4475687;32;34182;-77
2023/06/24 05:45:13;;;;;;;;;;;;;;;21.88;58.31;99775.88;4471041;32;33681;-78
2023/06/24 05:47:42;;;;;;;;;;;;;;;22.12;56.45;99789.44;4474625;32;33820;-79
2023/06/24 05:50:12;;;;;;;;;;;;;;;21.97;56.77;99779.78;4460254;32;35164;-79
2023/06/24 05:52:41;;;;;;;;;;;;;;;21.98;57.48;99784.09;4469145;32;35027;-79
2023/06/24 05:55:10;;;;;;;;;;;;;;;22.08;56.13;99787.06;4461998;32;33351;-78
2023/06/24 05:57:39;;;;;;;;;;;;;;;21.67;58.09;99791.19;4471135;32;34680;-78
2023/06/24 06:00:09;;;;;;;;;;;;;;;21.25;59.38;99792.63;4463931;32;33896;-78
2023/06/24 06:02:39;;;;;;;;;;;;;;;21.23;60.04;99789.22;4469825;32;34617;-77
2023/06/24 06:05:09;;;;;;;;;;;;;;;20.90;60.38;99799.88;4465118;32;34244;-77
2023/06/24 06:07:39;;;;;;;;;;;;;;;20.93;61.01;99798.84;4472064;32;35026;-79
2023/06/24 06:10:08;;;;;;;;;;;;;;;21.26;59.22;99790.84;4466218;32;34533;-77
2023/06/24 06:12:37;;;;;;;;;;;;;;;21.02;60.04;99798.31;4467094;32;34245;-77
2023/06/24 06:15:06;;;;;;;;;;;;;;;20.94;60.66;99798.75;4477361;32;34541;-77
2023/06/24 06:17:35;;;;;;;;;;;;;;;21.08;60.15;99806.75;4465907;32;34096;-78
2023/06/24 06:20:04;;;;;;;;;;;;;;;20.97;61.28;99816.19;4475787;32;34770;-79
2023/06/24 06:22:37;;;;;;;;;;;;;;;21.36;60.48;99828.13;4474652;32;32912;-77
2023/06/24 06:25:10;;;;;;;;;;;;;;;21.46;59.97;99816.16;4480570;32;33667;-79
2023/06/24 06:27:39;;;;;;;;;;;;;;;21.35;60.42;99810.59;4472189;32;33669;-77
2023/06/24 06:30:08;;;;;;;;;;;;;;;21.49;60.44;99810.72;4468879;31;34585;-77
2023/06/24 06:32:37;;;;;;;;;;;;;;;21.65;60.50;99814.19;4461022;32;34993;-77
2023/06/24 06:35:06;;;;;;;;;;;;;;;21.68;59.86;99823.72;4468945;32;33474;-78
2023/06/24 06:37:35;;;;;;;;;;;;;;;22.03;59.18;99818.19;4480708;32;33697;-78
2023/06/24 06:40:04;;;;;;;;;;;;;;;21.76;59.67;99818.00;4473695;32;34853;-78
2023/06/24 06:42:34;;;;;;;;;;;;;;;21.83;58.71;99816.72;4461967;32;33746;-78
2023/06/24 06:45:03;;;;;;;;;;;;;;;22.01;58.85;99807.72;4460582;32;32323;-79
2023/06/24 06:47:33;;;;;;;;;;;;;;;21.98;58.94;99820.25;4466672;32;34470;-78
2023/06/24 06:50:04;;;;;;;;;;;;;;;22.05;58.67;99818.94;4473249;32;33219;-77
2023/06/24 06:52:33;;;;;;;;;;;;;;;21.95;59.52;99824.75;4473374;32;34977;-79
2023/06/24 06:55:02;;;;;;;;;;;;;;;21.86;60.08;99816.53;4474021;32;33930;-77
2023/06/24 06:57:31;;;;;;;;;;;;;;;22.27;59.38;99821.19;4469311;32;34640;-78
2023/06/24 07:00:03;;;;;;;;;;;;;;;22.44;58.64;99826.31;4473230;32;34760;-78
2023/06/24 07:02:32;;;;;;;;;;;;;;;22.27;59.26;99821.19;4471875;32;34925;-78
2023/06/24 07:05:01;;;;;;;;;;;;;;;22.34;59.23;99822.53;4471819;32;33547;-77
2023/06/24 07:07:30;;;;;;;;;;;;;;;22.43;58.86;99816.69;4472760;32;34591;-79
2023/06/24 07:10:01;;;;;;;;;;;;;;;22.37;57.81;99820.56;4477507;32;34176;-77
2023/06/24 07:12:31;;;;;;;;;;;;;;;22.25;59.05;99817.78;4474945;32;35090;-79
2023/06/24 07:15:00;;;;;;;;;;;;;;;22.61;58.40;99817.37;4469061;32;33639;-78
2023/06/24 07:17:29;;;;;;;;;;;;;;;22.61;57.78;99814.72;4457825;32;34038;-78
2023/06/24 07:19:58;;;;;;;;;;;;;;;22.37;58.68;99817.06;4476152;32;35244;-77
2023/06/24 07:22:27;;;;;;;;;;;;;;;22.58;58.43;99818.41;4481554;32;33975;-77
2023/06/24 07:24:56;;;;;;;;;;;;;;;22.49;58.08;99823.41;4466154;32;34046;-77
2023/06/24 07:27:26;;;;;;;;;;;;;;;22.74;56.72;99823.63;4474958;32;33473;-77
2023/06/24 07:29:55;;;;;;;;;;;;;;;22.62;57.76;99821.72;4472785;32;34011;-78
2023/06/24 07:32:24;;;;;;;;;;;;;;;22.62;57.70;99823.53;4468038;32;33826;-78
2023/06/24 07:34:54;;;;;;;;;;;;;;;22.65;58.01;99831.28;4461360;32;33250;-78
2023/06/24 07:37:23;;;;;;;;;;;;;;;22.60;57.44;99834.19;4467449;32;33236;-79
2023/06/24 07:39:52;;;;;;;;;;;;;;;22.77;58.18;99844.59;4476413;32;33882;-77
2023/06/24 07:42:21;;;;;;;;;;;;;;;22.89;57.61;99850.06;4482875;32;35211;-78
2023/06/24 07:44:49;;;;;;;;;;;;;;;23.02;57.24;99858.97;4475882;32;33740;-78
2023/06/24 07:47:18;;;;;;;;;;;;;;;23.27;58.12;99852.12;4476115;32;34614;-77
2023/06/24 07:49:47;;;;;;;;;;;;;;;23.38;57.08;99850.50;4476625;32;35420;-79
2023/06/24 07:52:17;;;;;;;;;;;;;;;23.36;56.52;99852.41;4472944;32;34602;-79
2023/06/24 07:54:47;;;;;;;;;;;;;;;23.50;55.94;99843.56;4479895;32;32514;-77
2023/06/24 07:57:16;;;;;;;;;;;;;;;23.29;56.36;99835.22;4460478;32;34207;-78
2023/06/24 07:59:45;;;;;;;;;;;;;;;23.54;56.77;99841.59;4461464;32;34864;-77
2023/06/24 08:02:13;;;;;;;;;;;;;;;23.56;55.26;99843.19;4470540;32;33718;-78
2023/06/24 08:04:42;;;;;;;;;;;;;;;23.41;55.12;99852.09;4468494;32;34306;-79
2023/06/24 08:07:11;;;;;;;;;;;;;;;23.13;56.14;99858.31;4465870;32;34430;-76
2023/06/24 08:09:41;;;;;;;;;;;;;;;23.11;56.39;99854.91;4473214;32;33252;-79
2023/06/24 08:12:10;;;;;;;;;;;;;;;22.98;57.78;99854.84;4476873;32;33504;-79
2023/06/24 08:14:38;;;;;;;;;;;;;;;23.24;56.76;99858.47;4467245;32;33354;-79
2023/06/24 08:17:07;;;;;;;;;;;;;;;23.37;56.60;99854.13;4469892;32;33891;-79
2023/06/24 08:19:35;;;;;;;;;;;;;;;23.48;55.99;99863.16;4470232;32;33575;-79
2023/06/24 08:22:04;;;;;;;;;;;;;;;23.28;56.21;99875.88;4465916;32;34437;-77
2023/06/24 08:24:33;;;;;;;;;;;;;;;23.51;55.68;99861.19;4460987;32;34227;-79
2023/06/24 08:27:05;;;;;;;;;;;;;;;23.91;54.13;99853.31;4466169;32;34057;-79
2023/06/24 08:29:34;;;;;;;;;;;;;;;24.24;53.80;99846.72;4469196;32;34889;-78
2023/06/24 08:32:03;;;;;;;;;;;;;;;24.19;52.99;99838.25;4474132;32;34186;-79
2023/06/24 08:34:31;;;;;;;;;;;;;;;23.97;54.57;99841.44;4467324;32;33357;-78
2023/06/24 08:37:00;;;;;;;;;;;;;;;24.09;54.28;99860.97;4471144;32;34996;-77
2023/06/24 08:39:29;;;;;;;;;;;;;;;24.40;53.72;99862.44;4470928;32;34033;-80
2023/06/24 08:41:57;;;;;;;;;;;;;;;24.32;52.69;99868.25;4475458;32;34183;-79
2023/06/24 08:44:27;;;;;;;;;;;;;;;24.11;53.39;99856.44;4471061;32;33854;-78
2023/06/24 08:46:56;;;;;;;;;;;;;;;24.00;54.48;99876.56;4466426;32;34012;-77
2023/06/24 08:49:27;;;;;;;;;;;;;;;23.79;54.09;99867.38;4476814;32;34340;-77
2023/06/24 08:51:58;;;;;;;;;;;;;;;23.49;54.79;99872.81;4463477;32;34123;-79
2023/06/24 08:54:27;;;;;;;;;;;;;;;24.11;54.21;99875.84;4461696;32;33118;-78
2023/06/24 08:56:55;;;;;;;;;;;;;;;23.93;53.87;99871.78;4458770;32;34969;-79
2023/06/24 08:59:24;;;;;;;;;;;;;;;23.89;53.96;99872.91;4466212;32;34645;-78
2023/06/24 09:01:54;;;;;;;;;;;;;;;24.02;53.49;99872.00;4461333;32;34243;-78
2023/06/24 09:04:23;;;;;;;;;;;;;;;23.90;53.59;99862.22;4459596;32;35507;-77
2023/06/24 09:06:51;;;;;;;;;;;;;;;24.13;53.38;99854.53;4468389;32;33500;-77
2023/06/24 09:09:20;;;;;;;;;;;;;;;24.13;53.61;99850.06;4465361;32;34339;-80
2023/06/24 09:11:52;;;;;;;;;;;;;;;24.22;53.21;99851.28;4480943;32;35209;-77
2023/06/24 09:14:20;;;;;;;;;;;;;;;24.08;54.63;99851.34;4462919;32;32594;-77
2023/06/24 09:16:53;;;;;;;;;;;;;;;23.90;55.34;99851.63;4462675;32;33757;-78
2023/06/24 09:19:22;;;;;;;;;;;;;;;24.01;54.40;99848.25;4476201;32;33707;-79
2023/06/24 09:21:52;;;;;;;;;;;;;;;23.97;54.08;99862.66;4474756;32;34494;-79
2023/06/24 09:24:22;;;;;;;;;;;;;;;24.09;54.61;99867.16;4464503;32;33274;-77
2023/06/24 09:26:51;;;;;;;;;;;;;;;24.00;54.22;99860.66;4475228;32;34729;-77
2023/06/24 09:29:20;;;;;;;;;;;;;;;24.02;54.47;99853.47;4464394;31;33828;-79
2023/06/24 09:31:49;;;;;;;;;;;;;;;24.45;54.79;99847.91;4476533;32;33706;-78
2023/06/24 09:34:20;;;;;;;;;;;;;;;24.26;53.31;99848.31;4483889;32;34016;-78
2023/06/24 09:36:52;;;;;;;;;;;;;;;24.44;52.73;99840.06;4477392;32;34067;-78
2023/06/24 09:39:22;;;;;;;;;;;;;;;24.50;51.20;99855.59;4477864;32;34697;-78
2023/06/24 09:41:57;;;;;;;;;;;;;;;23.94;53.16;99857.56;4478486;32;34053;-79
2023/06/24 09:44:26;;;;;;;;;;;;;;;23.81;53.95;99842.47;4480411;32;33570;-78
2023/06/24 09:46:55;;;;;;;;;;;;;;;24.10;53.96;99842.34;4471932;32;33775;-77
2023/06/24 09:49:26;;;;;;;;;;;;;;;24.34;54.27;99849.59;4471354;32;33710;-79
2023/06/24 09:51:55;;;;;;;;;;;;;;;24.45;53.57;99847.03;4477764;32;34964;-78
2023/06/24 09:54:25;;;;;;;;;;;;;;;24.78;52.79;99845.72;4477893;32;33281;-78
2023/06/24 09:56:55;;;;;;;;;;;;;;;24.54;53.23;99835.00;4483931;32;34812;-79
2023/06/24 09:59:24;;;;;;;;;;;;;;;24.79;52.73;99852.72;4476509;32;35072;-77
2023/06/24 10:01:53;;;;;;;;;;;;;;;25.06;51.50;99840.16;4470993;32;34674;-80
2023/06/24 10:04:23;;;;;;;;;;;;;;;25.12;51.67;99839.72;4474861;32;33380;-79
2023/06/24 10:06:53;;;;;;;;;;;;;;;25.30;51.11;99834.09;4477794;32;34071;-79
2023/06/24 10:09:21;;;;;;;;;;;;;;;25.25;50.73;99825.59;4460340;32;33507;-78
2023/06/24 10:11:52;;;;;;;;;;;;;;;25.20;51.34;99833.03;4445958;32;34285;-80
2023/06/24 10:14:20;;;;;;;;;;;;;;;25.26;51.25;99837.94;4460143;32;33069;-78
2023/06/24 10:16:49;;;;;;;;;;;;;;;25.54;50.54;99831.47;4461421;32;33839;-79
2023/06/24 10:19:19;;;;;;;;;;;;;;;25.69;50.88;99821.53;4472432;32;34639;-78
2023/06/24 10:21:50;;;;;;;;;;;;;;;25.36;51.29;99828.31;4461575;32;33211;-78
2023/06/24 10:24:30;;;;;;;;;;;;;;;25.34;51.20;99830.25;4464877;32;34089;-77
2023/06/24 10:27:02;;;;;;;;;;;;;;;25.28;51.49;99831.53;4449954;32;32535;-78
2023/06/24 10:29:32;;;;;;;;;;;;;;;25.40;50.26;99832.47;4451510;32;34377;-79
2023/06/24 10:32:04;;;;;;;;;;;;;;;25.24;50.98;99813.28;4455390;32;34507;-79
2023/06/24 10:34:43;;;;;;;;;;;;;;;25.51;51.41;99824.53;4458604;32;34347;-78
2023/06/24 10:37:13;;;;;;;;;;;;;;;25.42;50.95;99819.06;4451589;32;33723;-79
2023/06/24 10:39:54;;;;;;;;;;;;;;;25.49;50.86;99817.66;4457896;32;35639;-79
2023/06/24 10:42:29;;;;;;;;;;;;;;;25.71;50.31;99816.94;4467824;32;35257;-80
2023/06/24 10:44:58;;;;;;;;;;;;;;;25.50;49.75;99820.19;4467728;32;33249;-78
2023/06/24 10:47:27;;;;;;;;;;;;;;;25.69;49.69;99822.34;4461707;32;34032;-79
2023/06/24 10:49:56;;;;;;;;;;;;;;;26.02;50.23;99823.47;4461936;32;34447;-80
2023/06/24 10:52:25;;;;;;;;;;;;;;;26.05;49.52;99819.75;4461887;32;34739;-78
2023/06/24 10:54:55;;;;;;;;;;;;;;;25.99;50.07;99817.56;4465925;32;33608;-78
2023/06/24 10:57:24;;;;;;;;;;;;;;;26.10;48.71;99830.91;4446871;32;33432;-79
2023/06/24 10:59:54;;;;;;;;;;;;;;;26.12;48.35;99823.63;4461965;32;35449;-78
2023/06/24 11:02:23;;;;;;;;;;;;;;;26.08;49.96;99840.78;4462408;32;34496;-79
2023/06/24 11:04:52;;;;;;;;;;;;;;;26.34;47.53;99833.50;4467242;32;33610;-80
2023/06/24 11:07:22;;;;;;;;;;;;;;;26.50;47.48;99826.00;4457731;32;33843;-80
2023/06/24 11:09:51;;;;;;;;;;;;;;;26.71;47.72;99833.34;4446378;32;34326;-79
2023/06/24 11:12:21;;;;;;;;;;;;;;;26.77;47.91;99833.72;4445730;32;34345;-80
2023/06/24 11:14:52;;;;;;;;;;;;;;;27.10;47.21;99836.47;4445766;32;34027;-79
2023/06/24 11:17:21;;;;;;;;;;;;;;;26.97;45.95;99837.47;4451501;32;34534;-78
2023/06/24 11:19:49;;;;;;;;;;;;;;;27.02;47.62;99837.94;4454999;32;34618;-77
2023/06/24 11:22:18;;;;;;;;;;;;;;;27.27;48.15;99835.16;4461560;32;34830;-78
2023/06/24 11:24:48;;;;;;;;;;;;;;;27.27;47.60;99819.16;4461931;32;33009;-77
2023/06/24 11:27:17;;;;;;;;;;;;;;;27.32;48.35;99831.13;4475798;32;33984;-77
2023/06/24 11:29:47;;;;;;;;;;;;;;;27.57;46.55;99830.00;4476929;32;33890;-77
2023/06/24 11:32:15;;;;;;;;;;;;;;;27.58;47.58;99818.37;4477250;32;34563;-76
2023/06/24 11:34:44;;;;;;;;;;;;;;;27.60;46.37;99816.41;4478582;32;34221;-77
2023/06/24 11:37:13;;;;;;;;;;;;;;;27.62;47.31;99809.16;4477383;32;33576;-78
2023/06/24 11:39:41;;;;;;;;;;;;;;;27.92;46.57;99806.75;4483114;32;34682;-79
2023/06/24 11:42:10;;;;;;;;;;;;;;;27.48;46.86;99806.78;4477097;32;34570;-79
2023/06/24 11:44:42;;;;;;;;;;;;;;;27.30;47.21;99808.25;4476999;32;32587;-79
2023/06/24 11:47:12;;;;;;;;;;;;;;;27.09;47.17;99808.16;4476733;32;34288;-77
2023/06/24 11:50:00;;;;;;;;;;;;;;;27.02;46.55;99799.81;4482751;32;33194;-78
2023/06/24 11:52:43;;;;;;;;;;;;;;;27.19;47.29;99786.00;4482128;32;34448;-79
2023/06/24 11:55:13;;;;;;;;;;;;;;;27.12;47.31;99778.63;4473752;32;34217;-78
2023/06/24 11:57:51;;;;;;;;;;;;;;;27.22;47.33;99779.59;4461556;32;33911;-78
2023/06/24 12:00:20;;;;;;;;;;;;;;;27.54;46.13;99782.28;4461702;32;34628;-79
2023/06/24 12:02:52;;;;;;;;;;;;;;;27.40;47.22;99779.91;4475035;32;34538;-80
2023/06/24 12:05:25;;;;;;;;;;;;;;;27.44;47.59;99782.19;4482083;32;33849;-78
2023/06/24 12:07:55;;;;;;;;;;;;;;;27.22;46.89;99780.44;4469462;32;33669;-78
2023/06/24 12:10:25;;;;;;;;;;;;;;;26.72;47.91;99776.47;4461694;32;33840;-78
2023/06/24 12:12:53;;;;;;;;;;;;;;;26.57;48.90;99781.19;4446843;32;33719;-79
2023/06/24 12:15:23;;;;;;;;;;;;;;;26.68;48.73;99775.88;4470206;32;33955;-79
2023/06/24 12:17:53;;;;;;;;;;;;;;;26.88;48.15;99768.12;4467837;32;34659;-79
2023/06/24 12:20:23;;;;;;;;;;;;;;;27.10;47.96;99768.09;4471529;32;34940;-77
2023/06/24 12:22:52;;;;;;;;;;;;;;;27.24;46.86;99773.16;4473910;32;34010;-78
2023/06/24 12:25:20;;;;;;;;;;;;;;;27.75;46.40;99768.16;4482069;32;33563;-79
2023/06/24 12:27:50;;;;;;;;;;;;;;;27.88;45.90;99763.50;4480305;32;34669;-79
2023/06/24 12:30:20;;;;;;;;;;;;;;;27.62;46.15;99766.50;4474220;32;33594;-77
2023/06/24 12:32:50;;;;;;;;;;;;;;;27.78;46.70;99755.41;4475885;32;34094;-79
2023/06/24 12:35:21;;;;;;;;;;;;;;;27.50;46.42;99767.53;4472604;32;33719;-78
2023/06/24 12:37:50;;;;;;;;;;;;;;;27.32;45.95;99766.38;4479170;32;34077;-79
2023/06/24 12:40:19;;;;;;;;;;;;;;;27.07;46.99;99764.84;4475955;32;33985;-79
2023/06/24 12:42:48;;;;;;;;;;;;;;;27.35;48.16;99764.31;4473763;32;35216;-78
2023/06/24 12:45:16;;;;;;;;;;;;;;;27.50;47.69;99764.87;4473886;32;33522;-79
2023/06/24 12:47:45;;;;;;;;;;;;;;;27.54;47.91;99746.78;4478407;32;33932;-78
2023/06/24 12:50:14;;;;;;;;;;;;;;;27.78;47.29;99755.41;4471797;32;33801;-77
2023/06/24 12:52:44;;;;;;;;;;;;;;;28.12;47.07;99749.91;4476427;32;34281;-78
2023/06/24 12:55:12;;;;;;;;;;;;;;;28.20;45.72;99738.59;4472409;32;34199;-80
2023/06/24 12:57:44;;;;;;;;;;;;;;;28.08;46.62;99733.34;4460587;32;33195;-78
2023/06/24 13:00:17;;;;;;;;;;;;;;;27.85;47.09;99737.09;4471023;32;34050;-78